aviador You're here:

KVRB Decoded Metar

VERO BEACH in FL, USA
Report Time2018-01-22 19:53:00
UTC Time2018-01-22 20:03:41
Flight Rules vfr VFR
Wind140° at 14 kt
W.Decomp.*RWY 11: 11.2 kt HW 8.4 kt RCW
RWY 22: 4.1 kt HW 13.4 kt LCW
W.Rank140° ranks 9
Current wind is above 140° avg. (9.3)
Visibility9999 m
Phenomena:N/A
Clouds:Scattered 020 Hf
Expected CloudBase > 2,000 ft AGL from Temp-Dew spread
CeilingNone
Temp24°C (ISA +9)
Dew Point19°C (74% RH)
AAT22.2°C
QNH1018 hPa
Density Alt1,207 ft
Elevation33 ft
Report Wrong Elevation
Raw Report
METAR KVRB 221953Z 14014KT 10SM SCT020 24/19 A3005 RMK AO2 SLP174 T02440189=

Extra information for KVRB:More info

Metar Taf Metar & Taf Last 4 Metars F.Rules Stats Wind Profile Meteogram Temp Stats Airport Information Weather charts Add Link Nearby VenuesMetar ALERT Operation Metar Decoded Social comments

AIRNAV info for KVRB